Time;durP1;ratioP1;P1;durP2;ratioP2;P2;SDS_P1;SDS_P2;PMS_P1;PMS_P2;Temp;Humidity;BMP_temperature;BMP_pressure;BME280_temperature;BME280_humidity;BME280_pressure;Samples;Min_cycle;Max_cycle;Signal;HPM_P1;HPM_P2
2022/08/30 00:02:19;;;;;;;5.57;3.43;;;24.70;56.90;;;;;;5015450;28;20431;-74
2022/08/30 00:04:45;;;;;;;3.30;3.00;;;24.70;57.00;;;;;;5019735;28;20464;-74
2022/08/30 00:07:14;;;;;;;4.73;3.00;;;24.70;57.10;;;;;;4992325;28;20177;-74
2022/08/30 00:09:43;;;;;;;3.60;3.30;;;24.70;57.20;;;;;;5026125;28;20502;-74
2022/08/30 00:12:12;;;;;;;3.33;2.93;;;24.70;57.20;;;;;;5033514;28;20822;-74
2022/08/30 00:14:38;;;;;;;4.10;3.47;;;24.70;57.20;;;;;;5032170;28;20451;-74
2022/08/30 00:17:04;;;;;;;3.73;3.20;;;24.70;57.30;;;;;;5032714;28;20455;-74
2022/08/30 00:19:30;;;;;;;3.13;2.83;;;24.70;57.30;;;;;;5028387;28;20431;-74
2022/08/30 00:21:59;;;;;;;4.43;3.40;;;24.70;57.40;;;;;;5022625;28;20792;-74
2022/08/30 00:24:27;;;;;;;3.43;2.90;;;24.70;57.40;;;;;;5030578;28;20467;-74
2022/08/30 00:26:55;;;;;;;4.83;3.60;;;24.70;57.50;;;;;;5019182;28;20416;-74
2022/08/30 00:29:22;;;;;;;5.50;3.50;;;24.70;57.60;;;;;;5017848;28;20441;-74
2022/08/30 00:31:48;;;;;;;4.07;3.17;;;24.70;57.60;;;;;;5033041;28;20434;-74
2022/08/30 00:34:16;;;;;;;3.67;2.90;;;24.60;57.70;;;;;;5033159;28;20528;-74
2022/08/30 00:36:43;;;;;;;5.80;3.43;;;24.60;57.70;;;;;;5008141;28;20448;-75
2022/08/30 00:39:09;;;;;;;6.63;2.80;;;24.60;57.70;;;;;;5033066;28;20463;-75
2022/08/30 00:41:36;;;;;;;3.77;3.00;;;24.60;57.80;;;;;;5033868;28;20943;-75
2022/08/30 00:44:03;;;;;;;3.43;2.97;;;24.60;57.90;;;;;;5030413;28;20478;-75
2022/08/30 00:46:33;;;;;;;4.67;3.30;;;24.60;57.90;;;;;;5023498;28;20420;-75
2022/08/30 00:49:06;;;;;;;3.47;3.10;;;24.60;58.00;;;;;;4988620;28;20539;-75
2022/08/30 00:51:32;;;;;;;5.73;3.30;;;24.60;58.10;;;;;;4987821;28;20999;-75
2022/08/30 00:53:59;;;;;;;4.70;3.70;;;24.60;58.10;;;;;;5033287;28;21134;-75
2022/08/30 00:56:25;;;;;;;4.83;3.57;;;24.50;58.10;;;;;;5015677;28;20434;-75
2022/08/30 00:58:56;;;;;;;4.80;3.47;;;24.50;58.20;;;;;;5029257;28;20412;-75
2022/08/30 01:01:27;;;;;;;6.50;3.47;;;24.50;58.20;;;;;;5004468;28;20458;-75
2022/08/30 01:03:58;;;;;;;7.23;3.73;;;24.50;58.30;;;;;;5030007;28;20495;-75
2022/08/30 01:06:24;;;;;;;4.27;3.33;;;24.50;58.40;;;;;;5019877;28;20434;-75
2022/08/30 01:08:51;;;;;;;6.37;3.40;;;24.50;58.40;;;;;;5024640;28;20504;-75
2022/08/30 01:11:23;;;;;;;5.93;3.60;;;24.50;58.50;;;;;;5027050;28;20502;-74
2022/08/30 01:13:53;;;;;;;4.03;2.90;;;24.50;58.50;;;;;;5031377;28;20545;-74
2022/08/30 01:16:21;;;;;;;5.50;3.20;;;24.50;58.60;;;;;;5019769;28;20454;-75
2022/08/30 01:18:48;;;;;;;5.70;3.07;;;24.40;58.60;;;;;;5021229;28;20451;-75
2022/08/30 01:21:23;;;;;;;5.27;3.60;;;24.50;58.70;;;;;;5014688;28;20960;-74
2022/08/30 01:23:52;;;;;;;3.83;3.20;;;24.40;58.70;;;;;;5014749;28;20444;-75
2022/08/30 01:26:21;;;;;;;4.63;3.37;;;24.40;58.80;;;;;;4986056;28;20424;-75
2022/08/30 01:28:54;;;;;;;3.70;3.23;;;24.40;58.80;;;;;;5008232;28;20423;-75
2022/08/30 01:31:22;;;;;;;4.10;3.57;;;24.40;58.80;;;;;;5027972;28;20817;-75
2022/08/30 01:33:49;;;;;;;5.23;3.50;;;24.40;58.90;;;;;;5032456;28;20485;-75
2022/08/30 01:36:17;;;;;;;3.60;3.30;;;24.40;59.00;;;;;;5017656;28;20468;-75
2022/08/30 01:38:56;;;;;;;4.03;3.03;;;24.40;59.00;;;;;;4983409;28;20866;-75
2022/08/30 01:41:31;;;;;;;4.43;3.40;;;24.40;59.00;;;;;;5020694;28;20470;-75
2022/08/30 01:44:00;;;;;;;3.57;2.90;;;24.40;59.10;;;;;;5026608;28;20554;-74
2022/08/30 01:46:30;;;;;;;5.57;3.60;;;24.40;59.10;;;;;;5026746;28;20420;-75
2022/08/30 01:48:57;;;;;;;5.63;4.13;;;24.40;59.20;;;;;;5012561;28;20432;-75
2022/08/30 01:51:26;;;;;;;4.17;3.73;;;24.30;59.10;;;;;;5030306;28;20450;-75
2022/08/30 01:53:52;;;;;;;5.80;3.63;;;24.30;59.10;;;;;;5023745;28;20479;-75
2022/08/30 01:56:24;;;;;;;3.63;3.30;;;24.30;59.20;;;;;;5001335;28;20465;-75
2022/08/30 01:58:50;;;;;;;4.90;3.50;;;24.30;59.20;;;;;;5022453;28;21004;-75
2022/08/30 02:01:19;;;;;;;4.27;3.13;;;24.30;59.20;;;;;;5022584;28;20485;-75
2022/08/30 02:03:45;;;;;;;3.83;3.20;;;24.30;59.30;;;;;;5031219;28;20447;-75
2022/08/30 02:06:14;;;;;;;4.77;3.07;;;24.30;59.20;;;;;;5023732;28;20438;-75
2022/08/30 02:08:45;;;;;;;3.60;3.27;;;24.30;59.40;;;;;;5018950;28;20792;-75
2022/08/30 02:11:15;;;;;;;3.80;3.27;;;24.30;59.40;;;;;;5019132;28;20439;-75
2022/08/30 02:13:43;;;;;;;5.10;3.43;;;24.20;59.30;;;;;;5020952;28;20772;-75
2022/08/30 02:16:12;;;;;;;3.30;3.00;;;24.20;59.40;;;;;;5015241;28;20815;-75
2022/08/30 02:18:41;;;;;;;4.33;3.60;;;24.20;59.40;;;;;;5031043;28;20411;-74
2022/08/30 02:21:08;;;;;;;4.10;3.57;;;24.20;59.40;;;;;;5031046;28;20396;-75
2022/08/30 02:23:35;;;;;;;4.37;3.00;;;24.20;59.40;;;;;;5028959;28;20497;-75
2022/08/30 02:26:01;;;;;;;3.77;3.43;;;24.20;59.50;;;;;;5027981;28;20452;-75
2022/08/30 02:28:30;;;;;;;4.00;3.20;;;24.20;59.50;;;;;;4979177;28;20444;-75
2022/08/30 02:30:59;;;;;;;3.97;3.03;;;24.20;59.60;;;;;;5032314;28;20400;-74
2022/08/30 02:33:27;;;;;;;3.37;3.07;;;24.20;59.50;;;;;;5031072;28;20661;-75
2022/08/30 02:35:54;;;;;;;4.20;3.37;;;24.10;59.50;;;;;;5032319;28;20419;-75
2022/08/30 02:38:23;;;;;;;4.00;3.47;;;24.20;59.60;;;;;;5032336;28;20486;-75
2022/08/30 02:40:52;;;;;;;4.27;3.50;;;24.20;59.70;;;;;;5032973;28;20453;-75
2022/08/30 02:43:23;;;;;;;4.90;3.87;;;24.10;59.60;;;;;;5030052;28;20485;-74
2022/08/30 02:45:49;;;;;;;4.93;3.47;;;24.10;59.60;;;;;;5009766;28;20471;-74
2022/08/30 02:48:18;;;;;;;3.60;3.17;;;24.10;59.70;;;;;;5012116;28;20439;-75
2022/08/30 02:50:46;;;;;;;3.70;3.10;;;24.10;59.70;;;;;;5020738;28;20428;-74
2022/08/30 02:53:12;;;;;;;3.53;3.23;;;24.10;59.70;;;;;;5020650;28;20452;-75
2022/08/30 02:55:38;;;;;;;3.50;3.20;;;24.10;59.70;;;;;;5020040;28;20477;-75
2022/08/30 02:58:09;;;;;;;4.97;3.00;;;24.10;59.80;;;;;;5030256;28;20447;-75
2022/08/30 03:00:36;;;;;;;3.47;3.10;;;24.10;59.80;;;;;;5022842;28;20452;-74
2022/08/30 03:03:03;;;;;;;5.77;3.57;;;24.10;59.80;;;;;;5019282;28;20472;-75
2022/08/30 03:05:31;;;;;;;3.60;3.13;;;24.10;59.90;;;;;;5015738;28;20452;-75
2022/08/30 03:08:01;;;;;;;4.03;3.20;;;24.10;59.90;;;;;;5028987;28;20472;-74
2022/08/30 03:10:29;;;;;;;5.83;3.17;;;24.10;60.00;;;;;;5011264;28;20462;-74
2022/08/30 03:12:58;;;;;;;3.33;3.03;;;24.10;60.00;;;;;;5024552;28;20448;-74
2022/08/30 03:15:28;;;;;;;3.50;3.20;;;24.00;60.00;;;;;;5021817;28;20424;-75
2022/08/30 03:17:55;;;;;;;4.43;2.90;;;24.00;60.00;;;;;;5016405;28;20427;-74
2022/08/30 03:20:23;;;;;;;4.00;3.03;;;24.00;60.00;;;;;;5029799;28;20488;-74
2022/08/30 03:22:52;;;;;;;3.77;3.10;;;24.00;60.00;;;;;;5019344;28;20487;-75
2022/08/30 03:25:20;;;;;;;5.40;3.27;;;24.00;60.10;;;;;;5014018;28;20474;-74
2022/08/30 03:27:49;;;;;;;3.93;3.37;;;24.00;60.00;;;;;;5012502;28;20439;-75
2022/08/30 03:30:17;;;;;;;3.40;3.10;;;24.00;60.10;;;;;;5010699;28;20514;-75
2022/08/30 03:32:43;;;;;;;3.50;3.10;;;24.00;60.20;;;;;;5024449;28;20432;-75
2022/08/30 03:35:10;;;;;;;3.27;2.97;;;24.00;60.30;;;;;;5022705;28;20506;-74
2022/08/30 03:37:39;;;;;;;3.50;3.00;;;24.00;60.30;;;;;;5020384;28;20877;-75
2022/08/30 03:40:07;;;;;;;5.90;3.40;;;23.90;60.30;;;;;;5029908;28;20447;-75
2022/08/30 03:42:36;;;;;;;3.00;2.80;;;23.90;60.30;;;;;;5015976;28;21174;-75
2022/08/30 03:45:05;;;;;;;3.00;2.80;;;23.90;60.40;;;;;;5010895;28;20495;-75
2022/08/30 03:47:33;;;;;;;4.00;3.20;;;23.90;60.30;;;;;;4994178;28;20416;-75
2022/08/30 03:50:00;;;;;;;5.60;2.93;;;23.90;60.40;;;;;;5029149;28;20940;-75
2022/08/30 03:52:26;;;;;;;4.83;3.70;;;23.90;60.40;;;;;;5025726;28;20565;-74
2022/08/30 03:54:52;;;;;;;3.43;3.13;;;23.90;60.50;;;;;;5013887;28;21000;-75
2022/08/30 03:57:20;;;;;;;4.00;3.47;;;23.90;60.50;;;;;;5016154;28;20428;-75
2022/08/30 03:59:46;;;;;;;3.10;2.80;;;23.90;60.50;;;;;;4977957;28;20494;-75
2022/08/30 04:02:15;;;;;;;3.33;3.03;;;23.90;60.50;;;;;;5023558;28;20978;-75
2022/08/30 04:04:41;;;;;;;3.50;3.07;;;23.80;60.40;;;;;;5017309;28;20486;-74
2022/08/30 04:07:08;;;;;;;4.17;3.77;;;23.80;60.50;;;;;;5029730;28;20431;-74
2022/08/30 04:09:36;;;;;;;3.63;2.93;;;23.80;60.60;;;;;;5045195;28;20193;-75
2022/08/30 04:12:03;;;;;;;3.20;3.00;;;23.80;60.70;;;;;;5028030;28;20419;-74
2022/08/30 04:14:29;;;;;;;3.40;3.13;;;23.80;60.70;;;;;;5013554;28;20779;-75
2022/08/30 04:16:57;;;;;;;3.27;2.97;;;23.80;60.70;;;;;;5019198;28;20806;-75
2022/08/30 04:19:26;;;;;;;3.53;3.20;;;23.80;60.70;;;;;;5014051;28;20436;-74
2022/08/30 04:21:52;;;;;;;4.33;2.77;;;23.80;60.70;;;;;;5024738;28;20458;-75
2022/08/30 04:24:21;;;;;;;4.53;2.93;;;23.80;60.70;;;;;;5022641;28;20463;-75
2022/08/30 04:26:51;;;;;;;4.37;3.67;;;23.80;60.80;;;;;;5001312;28;20827;-74
2022/08/30 04:29:20;;;;;;;3.20;2.90;;;23.80;60.80;;;;;;5023104;28;20628;-74
2022/08/30 04:31:50;;;;;;;3.40;3.00;;;23.70;60.70;;;;;;5026141;28;20423;-75
2022/08/30 04:34:16;;;;;;;3.73;3.43;;;23.70;60.70;;;;;;5028395;28;20531;-74
2022/08/30 04:36:42;;;;;;;5.50;3.47;;;23.70;60.80;;;;;;5013733;28;20425;-74
2022/08/30 04:39:09;;;;;;;4.10;2.80;;;23.70;60.90;;;;;;5039943;28;20989;-76
2022/08/30 04:41:36;;;;;;;3.30;2.87;;;23.70;61.00;;;;;;5026107;28;20790;-75
2022/08/30 04:44:09;;;;;;;3.40;3.10;;;23.70;60.90;;;;;;5018428;28;20468;-74
2022/08/30 04:46:40;;;;;;;3.50;3.10;;;23.70;60.90;;;;;;5015245;28;20416;-74
2022/08/30 04:49:08;;;;;;;3.83;2.80;;;23.70;60.90;;;;;;5023443;28;20423;-74
2022/08/30 04:51:35;;;;;;;3.40;3.10;;;23.70;61.00;;;;;;5016384;28;20441;-74
2022/08/30 04:54:05;;;;;;;3.67;3.37;;;23.70;61.10;;;;;;5030795;28;20467;-74
2022/08/30 04:56:34;;;;;;;4.00;3.00;;;23.60;61.10;;;;;;5013973;28;20938;-74
2022/08/30 04:59:02;;;;;;;2.97;2.77;;;23.70;61.10;;;;;;5018740;28;20856;-74
2022/08/30 05:01:31;;;;;;;3.37;3.07;;;23.60;61.10;;;;;;5016802;28;20968;-74
2022/08/30 05:04:00;;;;;;;3.67;3.17;;;23.60;61.20;;;;;;5022518;28;20440;-74
2022/08/30 05:06:29;;;;;;;4.10;3.70;;;23.60;61.20;;;;;;5026176;28;20412;-74
2022/08/30 05:08:59;;;;;;;3.30;3.00;;;23.60;61.10;;;;;;5022395;28;20415;-74
2022/08/30 05:11:25;;;;;;;3.83;3.50;;;23.60;61.20;;;;;;5028534;28;20959;-74
2022/08/30 05:13:52;;;;;;;4.10;2.80;;;23.60;61.30;;;;;;5027117;28;20439;-74
2022/08/30 05:16:22;;;;;;;3.50;3.20;;;23.60;61.40;;;;;;5034475;28;20940;-77
2022/08/30 05:18:50;;;;;;;4.57;3.27;;;23.60;62.20;;;;;;5033015;28;20473;-74
2022/08/30 05:21:22;;;;;;;3.27;2.97;;;23.60;61.40;;;;;;5029161;28;20451;-74
2022/08/30 05:23:49;;;;;;;3.53;3.23;;;23.50;61.30;;;;;;5031398;28;20523;-74
2022/08/30 05:26:19;;;;;;;3.50;3.10;;;23.50;61.30;;;;;;5027384;28;20431;-74
2022/08/30 05:28:45;;;;;;;4.10;3.70;;;23.50;61.50;;;;;;5033338;28;20450;-74
2022/08/30 05:31:20;;;;;;;4.00;3.60;;;23.50;61.50;;;;;;5020162;28;20467;-74
2022/08/30 05:33:49;;;;;;;3.00;2.70;;;23.50;61.50;;;;;;5019640;28;20479;-75
2022/08/30 05:36:17;;;;;;;3.30;2.73;;;23.50;61.50;;;;;;5013495;28;20440;-71
2022/08/30 05:38:43;;;;;;;8.53;4.03;;;23.50;61.50;;;;;;5031298;28;20428;-73
2022/08/30 05:41:10;;;;;;;3.83;3.30;;;23.50;61.70;;;;;;5023997;28;20432;-74
2022/08/30 05:43:37;;;;;;;3.77;3.40;;;23.40;62.10;;;;;;4995334;28;20460;-74
2022/08/30 05:46:09;;;;;;;5.70;3.40;;;23.40;62.10;;;;;;5012416;28;20446;-75
2022/08/30 05:48:36;;;;;;;4.33;3.20;;;23.40;62.00;;;;;;5013545;28;20401;-74
2022/08/30 05:51:10;;;;;;;8.17;3.47;;;23.40;62.30;;;;;;5013653;28;20412;-76
2022/08/30 05:53:36;;;;;;;3.77;3.03;;;23.40;62.30;;;;;;5012628;28;20506;-74
2022/08/30 05:56:07;;;;;;;4.87;3.33;;;23.40;62.50;;;;;;5066535;23;20590;-70
2022/08/30 05:58:34;;;;;;;3.60;3.30;;;23.40;62.40;;;;;;5018072;28;20976;-70
2022/08/30 06:01:06;;;;;;;3.60;3.30;;;23.40;62.40;;;;;;4993893;28;20397;-68
2022/08/30 06:03:34;;;;;;;3.23;3.03;;;23.40;62.30;;;;;;4993622;28;20432;-70
2022/08/30 06:06:01;;;;;;;3.97;3.20;;;23.40;62.30;;;;;;4993414;28;20515;-71
2022/08/30 06:08:27;;;;;;;5.70;3.30;;;23.40;62.30;;;;;;4976214;28;20541;-71
2022/08/30 06:10:55;;;;;;;4.03;2.97;;;23.40;62.30;;;;;;5008918;28;20429;-71
2022/08/30 06:13:22;;;;;;;3.57;3.27;;;23.30;62.10;;;;;;5011788;28;20499;-71
2022/08/30 06:15:48;;;;;;;6.23;3.00;;;23.40;62.30;;;;;;4995589;28;20788;-70
2022/08/30 06:18:16;;;;;;;3.43;3.13;;;23.30;62.10;;;;;;5012795;28;20439;-70
2022/08/30 06:20:46;;;;;;;5.77;3.20;;;23.30;62.00;;;;;;5011687;28;20412;-70
2022/08/30 06:23:21;;;;;;;3.27;3.07;;;23.30;62.00;;;;;;5012945;28;20440;-71
2022/08/30 06:25:49;;;;;;;3.40;3.10;;;23.30;62.20;;;;;;5011357;28;20986;-70
2022/08/30 06:28:16;;;;;;;3.30;3.00;;;23.30;62.10;;;;;;5012873;28;20408;-71
2022/08/30 06:30:44;;;;;;;3.60;3.27;;;23.30;62.20;;;;;;5012920;28;20474;-71
2022/08/30 06:33:10;;;;;;;3.97;2.80;;;23.30;62.20;;;;;;5011101;28;20478;-70
2022/08/30 06:35:36;;;;;;;4.10;3.27;;;23.30;62.40;;;;;;4995169;28;20405;-71
2022/08/30 06:38:02;;;;;;;4.87;3.40;;;23.30;62.40;;;;;;5024360;28;20431;-71
2022/08/30 06:40:31;;;;;;;3.00;2.80;;;23.30;62.30;;;;;;5030369;28;20596;-71
2022/08/30 06:43:02;;;;;;;3.70;3.37;;;23.30;62.30;;;;;;5029457;28;20462;-70
2022/08/30 06:45:33;;;;;;;3.20;2.83;;;23.30;62.40;;;;;;5032162;28;20533;-71
2022/08/30 06:48:02;;;;;;;4.70;3.03;;;23.30;62.40;;;;;;5014267;28;20450;-70
2022/08/30 06:50:27;;;;;;;3.93;3.30;;;23.30;62.60;;;;;;5014832;28;20518;-71
2022/08/30 06:52:54;;;;;;;4.87;3.80;;;23.30;62.40;;;;;;5031046;28;20514;-71
2022/08/30 06:55:20;;;;;;;3.73;3.40;;;23.30;62.40;;;;;;5030842;28;20408;-71
2022/08/30 06:57:46;;;;;;;4.10;3.43;;;23.30;62.30;;;;;;5014481;28;20833;-71
2022/08/30 07:00:15;;;;;;;3.60;3.30;;;23.30;62.40;;;;;;5014296;28;20430;-70
2022/08/30 07:02:44;;;;;;;4.87;3.40;;;23.30;62.30;;;;;;5032032;28;20427;-71
2022/08/30 07:05:12;;;;;;;3.53;3.23;;;23.30;62.50;;;;;;5030766;28;20967;-71
2022/08/30 07:07:43;;;;;;;4.00;3.50;;;23.30;62.30;;;;;;5005186;28;20443;-71
2022/08/30 07:10:09;;;;;;;4.00;3.60;;;23.30;62.40;;;;;;5011605;28;20869;-71
2022/08/30 07:12:38;;;;;;;4.03;3.63;;;23.30;62.30;;;;;;5012358;28;20405;-71
2022/08/30 07:15:07;;;;;;;4.10;3.70;;;23.30;62.40;;;;;;4994653;28;20449;-71
2022/08/30 07:20:25;;;;;;;3.20;2.90;;;23.30;62.30;;;;;;5012036;28;20890;-71
2022/08/30 07:22:53;;;;;;;4.60;3.43;;;23.30;62.30;;;;;;5010911;28;20531;-71
2022/08/30 07:25:19;;;;;;;4.07;3.67;;;23.30;62.30;;;;;;4994322;28;20452;-70
2022/08/30 07:27:51;;;;;;;3.33;3.03;;;23.30;62.30;;;;;;4994677;28;20417;-71
2022/08/30 07:30:22;;;;;;;4.47;3.80;;;23.30;62.40;;;;;;5010702;28;20420;-71
2022/08/30 07:32:48;;;;;;;3.87;3.57;;;23.30;62.40;;;;;;5010831;28;20968;-71
2022/08/30 07:35:16;;;;;;;4.00;3.50;;;23.30;62.50;;;;;;5010850;28;20459;-71
2022/08/30 07:37:47;;;;;;;4.67;3.50;;;23.30;62.70;;;;;;5010500;28;20425;-71
2022/08/30 07:40:12;;;;;;;4.30;3.80;;;23.30;62.70;;;;;;5024667;28;20948;-71
2022/08/30 07:42:39;;;;;;;3.90;3.60;;;23.30;62.60;;;;;;5030328;28;20477;-71
2022/08/30 07:45:09;;;;;;;4.07;3.20;;;23.30;62.70;;;;;;5014055;28;20463;-71
2022/08/30 07:47:39;;;;;;;4.07;3.67;;;23.30;62.80;;;;;;5031664;28;20415;-71
2022/08/30 07:50:06;;;;;;;4.13;3.37;;;23.30;62.70;;;;;;5031334;28;20432;-70
2022/08/30 07:52:33;;;;;;;5.53;3.60;;;23.30;63.60;;;;;;5028971;28;20415;-71
2022/08/30 07:55:02;;;;;;;4.33;3.70;;;23.30;62.60;;;;;;5018262;28;20414;-71
2022/08/30 07:57:32;;;;;;;4.00;3.53;;;23.30;62.60;;;;;;5034409;28;20581;-71
2022/08/30 07:59:59;;;;;;;4.30;3.90;;;23.30;62.70;;;;;;5034430;28;20450;-71
2022/08/30 08:02:25;;;;;;;4.03;3.60;;;23.30;62.80;;;;;;5034016;28;21009;-71
2022/08/30 08:04:51;;;;;;;5.53;3.00;;;23.30;62.90;;;;;;5017480;28;20889;-70
2022/08/30 08:07:18;;;;;;;4.47;3.80;;;23.30;62.80;;;;;;5034193;28;20462;-71
2022/08/30 08:09:46;;;;;;;4.20;3.67;;;23.30;62.80;;;;;;5023010;28;20439;-71
2022/08/30 08:12:18;;;;;;;6.20;4.07;;;23.30;63.00;;;;;;5015213;28;20409;-71
2022/08/30 08:14:46;;;;;;;4.27;3.47;;;23.30;62.70;;;;;;5000177;28;20475;-71
2022/08/30 08:17:12;;;;;;;3.80;3.50;;;23.30;62.80;;;;;;5033717;28;20463;-71
2022/08/30 08:19:40;;;;;;;3.90;3.13;;;23.30;62.80;;;;;;5033941;28;20510;-71
2022/08/30 08:22:11;;;;;;;9.07;3.40;;;23.30;62.90;;;;;;5017889;28;20424;-71
2022/08/30 08:24:37;;;;;;;3.53;3.23;;;23.40;62.90;;;;;;5005479;28;20849;-71
2022/08/30 08:27:06;;;;;;;3.97;3.60;;;23.30;62.70;;;;;;4994741;28;20445;-71
2022/08/30 08:29:37;;;;;;;3.90;3.60;;;23.40;62.80;;;;;;4994492;28;20437;-71
2022/08/30 08:32:06;;;;;;;3.93;3.50;;;23.40;62.80;;;;;;4978116;28;20436;-70
2022/08/30 08:34:33;;;;;;;3.47;3.10;;;23.40;62.70;;;;;;4994084;28;20525;-71
2022/08/30 08:37:01;;;;;;;3.60;3.30;;;23.40;62.60;;;;;;4978222;28;20414;-71
2022/08/30 08:39:27;;;;;;;8.67;3.10;;;23.40;62.50;;;;;;4995205;28;20397;-71
2022/08/30 08:42:07;;;;;;;5.10;4.00;;;23.40;62.70;;;;;;4995451;28;20439;-71
2022/08/30 08:44:36;;;;;;;4.37;3.50;;;23.40;62.70;;;;;;5011272;28;20972;-71
2022/08/30 08:47:15;;;;;;;3.83;3.53;;;23.40;62.70;;;;;;5013827;28;20413;-71
2022/08/30 08:49:44;;;;;;;3.77;3.20;;;23.40;62.70;;;;;;5014705;28;20408;-71
2022/08/30 08:55:32;;;;;;;3.73;3.33;;;23.50;63.00;;;;;;5010643;28;20425;-71
2022/08/30 08:58:01;;;;;;;4.70;3.30;;;23.50;63.00;;;;;;5013406;28;20464;-71
2022/08/30 09:00:31;;;;;;;4.10;3.43;;;23.50;63.00;;;;;;5013520;28;20440;-71
2022/08/30 09:03:03;;;;;;;6.10;2.80;;;23.60;63.00;;;;;;4997067;28;20459;-71
2022/08/30 09:05:36;;;;;;;3.50;3.20;;;23.60;62.90;;;;;;5012231;28;21032;-71
2022/08/30 09:08:13;;;;;;;6.10;2.90;;;23.60;62.80;;;;;;5013173;28;20412;-71
2022/08/30 09:10:45;;;;;;;3.37;2.87;;;23.60;63.10;;;;;;4983613;28;20487;-71
2022/08/30 09:13:15;;;;;;;3.20;2.87;;;23.60;62.90;;;;;;4977516;28;20461;-71
2022/08/30 09:15:41;;;;;;;3.90;2.83;;;23.60;62.90;;;;;;4993390;28;20441;-71
2022/08/30 09:18:10;;;;;;;3.30;3.00;;;23.60;62.80;;;;;;4993328;28;20943;-71
2022/08/30 09:20:46;;;;;;;2.93;2.60;;;23.60;62.80;;;;;;4994649;28;20922;-71
2022/08/30 09:23:27;;;;;;;4.17;3.10;;;23.70;62.90;;;;;;5009659;28;20460;-71
2022/08/30 09:26:08;;;;;;;4.17;3.17;;;23.70;62.80;;;;;;4994160;28;20475;-71
2022/08/30 09:28:53;;;;;;;3.40;3.07;;;23.70;62.90;;;;;;5009358;28;20448;-71
2022/08/30 09:31:26;;;;;;;4.83;3.43;;;23.70;62.90;;;;;;4994127;28;20437;-71
2022/08/30 09:34:05;;;;;;;2.93;2.73;;;23.70;62.90;;;;;;4993174;28;20433;-71
2022/08/30 09:36:38;;;;;;;4.40;2.93;;;23.70;62.90;;;;;;4977202;28;20477;-71
2022/08/30 09:39:24;;;;;;;3.60;3.30;;;23.80;63.00;;;;;;4993278;28;20413;-70
2022/08/30 09:41:54;;;;;;;3.10;2.80;;;23.80;63.10;;;;;;5013806;28;20440;-71
2022/08/30 09:44:22;;;;;;;3.20;2.90;;;23.80;63.10;;;;;;5012442;28;20811;-71
2022/08/30 09:46:56;;;;;;;3.30;3.00;;;23.80;63.10;;;;;;5012331;28;20482;-71
2022/08/30 09:49:44;;;;;;;5.07;3.43;;;23.80;63.00;;;;;;5012562;28;20455;-71
2022/08/30 09:52:22;;;;;;;3.53;3.07;;;23.80;63.00;;;;;;4995944;28;20435;-71
2022/08/30 09:55:09;;;;;;;3.23;2.93;;;23.90;63.10;;;;;;5013868;28;20531;-71
2022/08/30 09:57:53;;;;;;;3.60;3.10;;;23.90;63.10;;;;;;5011940;28;20944;-71
2022/08/30 10:00:27;;;;;;;3.90;3.10;;;24.00;63.20;;;;;;5013720;28;20918;-71
2022/08/30 10:03:25;;;;;;;3.50;2.93;;;24.00;63.10;;;;;;4996037;28;20455;-71
2022/08/30 10:06:20;;;;;;;5.17;3.20;;;24.00;63.00;;;;;;5011747;28;20867;-70
2022/08/30 10:09:09;;;;;;;3.60;3.30;;;24.00;63.10;;;;;;5013163;28;20417;-71
2022/08/30 10:12:19;;;;;;;7.30;3.20;;;24.10;63.20;;;;;;4995757;28;20456;-71
2022/08/30 10:15:38;;;;;;;3.50;2.93;;;24.10;63.10;;;;;;5013166;28;20794;-71
2022/08/30 10:18:25;;;;;;;3.50;3.20;;;24.10;63.00;;;;;;4995189;28;20981;-71
2022/08/30 10:21:12;;;;;;;3.20;2.90;;;24.10;63.00;;;;;;5011942;28;20798;-72
2022/08/30 10:23:48;;;;;;;3.37;3.00;;;24.20;63.00;;;;;;4998075;28;20808;-71
2022/08/30 10:26:25;;;;;;;4.70;3.37;;;24.20;63.00;;;;;;4993347;28;20459;-71
2022/08/30 10:29:14;;;;;;;3.20;2.90;;;24.20;63.10;;;;;;4992148;28;20449;-71
2022/08/30 10:32:09;;;;;;;4.63;3.20;;;24.20;63.10;;;;;;4960487;28;20895;-71
2022/08/30 10:34:44;;;;;;;3.57;2.60;;;24.30;63.00;;;;;;4975693;28;20496;-71
2022/08/30 10:37:24;;;;;;;9.07;2.73;;;24.30;63.00;;;;;;4975957;28;20431;-71
2022/08/30 10:39:58;;;;;;;3.30;3.10;;;24.30;62.90;;;;;;4991826;28;20411;-70
2022/08/30 10:42:34;;;;;;;4.47;3.43;;;24.40;62.90;;;;;;4992994;28;20422;-71
2022/08/30 10:45:14;;;;;;;3.70;2.73;;;24.40;62.80;;;;;;4978877;28;20471;-71
2022/08/30 10:48:05;;;;;;;4.23;3.30;;;24.40;62.60;;;;;;5011397;28;20408;-71
2022/08/30 10:50:41;;;;;;;5.03;3.03;;;24.50;62.70;;;;;;5011362;28;20807;-71
2022/08/30 10:53:16;;;;;;;3.07;2.87;;;24.50;62.50;;;;;;5012200;28;20805;-71
2022/08/30 10:55:53;;;;;;;7.23;3.20;;;24.50;62.30;;;;;;5012277;28;20440;-71
2022/08/30 10:58:25;;;;;;;5.30;3.37;;;24.50;62.30;;;;;;5012437;28;20788;-71
2022/08/30 11:01:12;;;;;;;2.90;2.70;;;24.60;62.30;;;;;;5011326;28;20441;-71
2022/08/30 11:04:15;;;;;;;3.27;3.07;;;24.60;62.20;;;;;;5012199;28;20436;-71
2022/08/30 11:07:02;;;;;;;3.57;2.93;;;24.60;62.10;;;;;;5011086;28;20466;-71
2022/08/30 11:10:02;;;;;;;4.40;2.77;;;24.70;62.10;;;;;;5010649;28;20482;-71
2022/08/30 11:12:36;;;;;;;4.33;2.83;;;24.70;62.00;;;;;;5010815;28;20426;-71
2022/08/30 11:15:20;;;;;;;3.80;3.30;;;24.70;62.00;;;;;;5010489;28;20847;-71
2022/08/30 11:18:00;;;;;;;3.67;3.37;;;24.80;61.90;;;;;;5010825;28;20483;-71
2022/08/30 11:20:35;;;;;;;5.00;3.60;;;24.80;61.80;;;;;;4979135;28;20937;-71
2022/08/30 11:23:29;;;;;;;4.60;3.47;;;24.80;61.70;;;;;;5011900;28;20470;-71
2022/08/30 11:25:58;;;;;;;3.83;3.00;;;24.80;61.60;;;;;;5012066;28;20490;-71
2022/08/30 11:28:36;;;;;;;3.53;3.23;;;24.90;61.60;;;;;;5010313;28;20419;-71
2022/08/30 11:31:05;;;;;;;5.60;3.23;;;24.90;61.50;;;;;;5010716;28;20432;-71
2022/08/30 11:33:42;;;;;;;3.97;3.00;;;24.90;61.50;;;;;;5010905;28;20523;-71
2022/08/30 11:36:56;;;;;;;9.47;3.83;;;24.90;61.40;;;;;;4973664;28;20425;-71
2022/08/30 11:39:45;;;;;;;5.07;2.90;;;25.00;61.50;;;;;;5005780;28;20944;-71
2022/08/30 11:42:34;;;;;;;3.40;3.03;;;25.00;61.40;;;;;;5011896;28;20449;-71
2022/08/30 11:45:22;;;;;;;3.60;3.30;;;25.00;61.20;;;;;;5010244;28;20505;-71
2022/08/30 11:47:56;;;;;;;4.93;3.10;;;25.00;61.10;;;;;;4994397;28;20444;-70
2022/08/30 11:50:30;;;;;;;5.03;3.37;;;25.10;61.10;;;;;;5010567;28;20400;-71
2022/08/30 11:53:27;;;;;;;5.43;3.60;;;25.10;61.00;;;;;;5010637;28;21020;-71
2022/08/30 11:56:19;;;;;;;6.73;3.43;;;25.10;60.90;;;;;;4994103;28;20451;-71
2022/08/30 11:58:51;;;;;;;4.13;3.30;;;25.20;61.00;;;;;;5010534;28;20407;-71
2022/08/30 12:01:40;;;;;;;3.90;2.90;;;25.20;60.80;;;;;;5010701;28;20416;-71
2022/08/30 12:04:12;;;;;;;3.47;3.17;;;25.20;60.70;;;;;;5011851;28;20447;-71
2022/08/30 12:06:41;;;;;;;4.00;3.60;;;25.20;61.40;;;;;;5009524;28;20409;-71
2022/08/30 12:09:32;;;;;;;3.90;3.50;;;25.20;60.40;;;;;;5010448;28;20457;-71
2022/08/30 12:12:11;;;;;;;3.50;3.20;;;25.30;60.50;;;;;;4994224;28;20474;-71
2022/08/30 12:14:48;;;;;;;4.03;2.90;;;25.30;60.30;;;;;;4994015;28;20436;-71
2022/08/30 12:20:29;;;;;;;3.93;2.90;;;25.30;60.20;;;;;;4991945;28;20817;-71
2022/08/30 12:23:27;;;;;;;3.43;3.13;;;25.40;60.10;;;;;;4994482;28;20447;-71
2022/08/30 12:26:25;;;;;;;4.67;3.10;;;25.40;60.00;;;;;;5010324;28;20475;-71
2022/08/30 12:29:14;;;;;;;3.70;3.40;;;25.40;59.90;;;;;;5011217;28;20397;-72
2022/08/30 12:32:01;;;;;;;4.37;3.97;;;25.40;60.00;;;;;;4978142;28;20955;-71
2022/08/30 12:34:57;;;;;;;3.30;3.00;;;25.50;60.00;;;;;;5010165;28;20478;-71
2022/08/30 12:37:25;;;;;;;3.33;3.03;;;25.50;60.00;;;;;;5015124;28;20462;-71
2022/08/30 12:40:29;;;;;;;3.37;3.00;;;25.50;59.90;;;;;;5014211;28;20509;-70
2022/08/30 12:43:03;;;;;;;3.50;3.20;;;25.60;59.90;;;;;;4973386;28;20454;-71
2022/08/30 12:45:58;;;;;;;3.57;3.27;;;25.60;59.80;;;;;;5039549;28;20463;-71
2022/08/30 12:48:28;;;;;;;4.23;2.80;;;25.60;60.00;;;;;;5032564;28;20872;-71
2022/08/30 12:50:57;;;;;;;3.60;3.30;;;25.60;59.70;;;;;;5016866;28;20461;-71
2022/08/30 12:53:36;;;;;;;3.57;3.00;;;25.60;59.70;;;;;;5029838;28;20463;-71
2022/08/30 12:56:43;;;;;;;3.17;2.87;;;25.70;59.70;;;;;;5014579;28;20521;-71
2022/08/30 12:59:10;;;;;;;4.07;2.90;;;25.70;59.60;;;;;;5014531;28;20449;-71
2022/08/30 13:01:36;;;;;;;4.20;3.37;;;25.70;59.60;;;;;;5013363;28;20486;-71
2022/08/30 13:04:26;;;;;;;3.33;2.70;;;25.80;59.60;;;;;;5013179;28;20809;-71
2022/08/30 13:06:52;;;;;;;5.23;2.87;;;25.80;59.60;;;;;;5013337;28;20462;-71
2022/08/30 13:09:26;;;;;;;3.33;3.03;;;25.80;59.50;;;;;;5012782;28;20467;-71
2022/08/30 13:11:53;;;;;;;3.27;3.00;;;25.80;59.40;;;;;;5013302;28;20462;-71
2022/08/30 13:14:29;;;;;;;3.53;3.13;;;25.90;59.40;;;;;;4994178;28;20461;-71
2022/08/30 13:17:26;;;;;;;6.00;3.40;;;25.90;59.30;;;;;;4977430;28;20880;-71
2022/08/30 13:20:04;;;;;;;3.00;2.70;;;25.90;59.20;;;;;;4977629;28;20855;-71
2022/08/30 13:22:40;;;;;;;3.73;3.30;;;25.90;59.20;;;;;;4977130;28;20445;-71
2022/08/30 13:25:10;;;;;;;3.27;2.63;;;25.90;59.20;;;;;;4994455;28;20449;-71